Time;durP1;ratioP1;P1;durP2;ratioP2;P2;SDS_P1;SDS_P2;PMS_P1;PMS_P2;Temp;Humidity;BMP_temperature;BMP_pressure;BME280_temperature;BME280_humidity;BME280_pressure;Samples;Min_cycle;Max_cycle;Signal;HPM_P1;HPM_P2
2024/01/24 00:01:30;;;;;;;;;;;;;;;;;;4933860;28;19970;-65
2024/01/24 00:03:57;;;;;;;;;;;;;;;;;;4933797;28;19927;-65
2024/01/24 00:06:24;;;;;;;;;;;;;;;;;;4933413;28;19927;-64
2024/01/24 00:08:51;;;;;;;;;;;;;;;;;;4933680;28;19927;-64
2024/01/24 00:11:18;;;;;;;;;;;;;;;;;;4933585;28;19931;-65
2024/01/24 00:13:45;;;;;;;;;;;;;;;;;;4933672;28;19926;-65
2024/01/24 00:16:12;;;;;;;;;;;;;;;;;;4933687;28;19934;-64
2024/01/24 00:18:39;;;;;;;;;;;;;;;;;;4933119;28;20444;-64
2024/01/24 00:21:07;;;;;;;;;;;;;;;;;;4933567;28;19935;-64
2024/01/24 00:23:34;;;;;;;;;;;;;;;;;;4933375;28;19942;-65
2024/01/24 00:26:01;;;;;;;;;;;;;;;;;;4933515;28;19989;-65
2024/01/24 00:28:29;;;;;;;;;;;;;;;;;;4933181;28;19933;-66
2024/01/24 00:30:56;;;;;;;;;;;;;;;;;;4933670;28;19937;-66
2024/01/24 00:33:23;;;;;;;;;;;;;;;;;;4935697;28;19927;-65
2024/01/24 00:35:50;;;;;;;;;;;;;;;;;;4952389;28;19926;-65
2024/01/24 00:38:17;;;;;;;;;;;;;;;;;;4946327;28;19934;-65
2024/01/24 00:40:44;;;;;;;;;;;;;;;;;;4933014;28;19927;-66
2024/01/24 00:43:11;;;;;;;;;;;;;;;;;;4932882;28;19950;-66
2024/01/24 00:45:38;;;;;;;;;;;;;;;;;;4933184;28;20275;-66
2024/01/24 00:48:06;;;;;;;;;;;;;;;;;;4933070;28;19966;-65
2024/01/24 00:50:34;;;;;;;;;;;;;;;;;;4936712;28;19934;-64
2024/01/24 00:53:01;;;;;;;;;;;;;;;;;;4949888;28;19927;-65
2024/01/24 00:55:28;;;;;;;;;;;;;;;;;;4913707;28;19927;-65
2024/01/24 00:57:56;;;;;;;;;;;;;;;;;;4913811;29;19997;-66
2024/01/24 01:00:23;;;;;;;;;;;;;;;;;;4914201;29;19927;-65
2024/01/24 01:02:50;;;;;;;;;;;;;;;;;;4932574;28;20390;-65
2024/01/24 01:05:17;;;;;;;;;;;;;;;;;;4933013;28;19954;-66
2024/01/24 01:07:44;;;;;;;;;;;;;;;;;;4937423;28;19927;-66
2024/01/24 01:10:11;;;;;;;;;;;;;;;;;;4934183;28;20374;-65
2024/01/24 01:12:38;;;;;;;;;;;;;;;;;;4931963;28;20463;-66
2024/01/24 01:15:05;;;;;;;;;;;;;;;;;;4932694;28;20013;-65
2024/01/24 01:17:32;;;;;;;;;;;;;;;;;;4932886;28;19927;-66
2024/01/24 01:19:59;;;;;;;;;;;;;;;;;;4932969;28;20271;-66
2024/01/24 01:22:26;;;;;;;;;;;;;;;;;;4932746;28;20275;-66
2024/01/24 01:24:53;;;;;;;;;;;;;;;;;;4938875;28;20359;-66
2024/01/24 01:27:22;;;;;;;;;;;;;;;;;;4951534;28;19988;-66
2024/01/24 01:29:49;;;;;;;;;;;;;;;;;;4997857;28;19935;-63
2024/01/24 01:32:16;;;;;;;;;;;;;;;;;;4932313;28;20451;-63
2024/01/24 01:34:43;;;;;;;;;;;;;;;;;;4932194;28;19973;-63
2024/01/24 01:37:10;;;;;;;;;;;;;;;;;;4932707;28;19927;-64
2024/01/24 01:39:37;;;;;;;;;;;;;;;;;;4932663;28;19927;-64
2024/01/24 01:42:04;;;;;;;;;;;;;;;;;;4940247;28;19926;-64
2024/01/24 01:44:31;;;;;;;;;;;;;;;;;;4940724;28;19956;-64
2024/01/24 01:46:58;;;;;;;;;;;;;;;;;;4931591;28;19972;-64
2024/01/24 01:49:25;;;;;;;;;;;;;;;;;;4931989;28;19927;-64
2024/01/24 01:51:52;;;;;;;;;;;;;;;;;;4932396;28;19931;-64
2024/01/24 01:54:19;;;;;;;;;;;;;;;;;;4932236;28;20279;-64
2024/01/24 01:56:46;;;;;;;;;;;;;;;;;;4932029;28;19942;-64
2024/01/24 01:59:13;;;;;;;;;;;;;;;;;;4941648;28;19927;-65
2024/01/24 02:01:40;;;;;;;;;;;;;;;;;;4951535;28;19927;-65
2024/01/24 02:04:07;;;;;;;;;;;;;;;;;;4937980;28;20382;-65
2024/01/24 02:06:34;;;;;;;;;;;;;;;;;;4932219;28;19974;-65
2024/01/24 02:09:01;;;;;;;;;;;;;;;;;;4932431;28;19935;-65
2024/01/24 02:11:29;;;;;;;;;;;;;;;;;;4931587;28;20457;-65
2024/01/24 02:13:56;;;;;;;;;;;;;;;;;;4932052;28;19931;-65
2024/01/24 02:16:23;;;;;;;;;;;;;;;;;;4942306;28;19981;-64
2024/01/24 02:18:50;;;;;;;;;;;;;;;;;;4950815;28;20344;-65
2024/01/24 02:21:17;;;;;;;;;;;;;;;;;;4934606;28;20416;-65
2024/01/24 02:23:44;;;;;;;;;;;;;;;;;;4931995;28;19958;-66
2024/01/24 02:26:11;;;;;;;;;;;;;;;;;;4931878;29;19931;-65
2024/01/24 02:28:38;;;;;;;;;;;;;;;;;;4932177;28;19931;-65
2024/01/24 02:31:05;;;;;;;;;;;;;;;;;;4932159;28;19927;-65
2024/01/24 02:33:32;;;;;;;;;;;;;;;;;;4932103;28;19989;-65
2024/01/24 02:35:59;;;;;;;;;;;;;;;;;;4931245;28;19934;-65
2024/01/24 02:38:26;;;;;;;;;;;;;;;;;;4931685;28;19981;-65
2024/01/24 02:40:53;;;;;;;;;;;;;;;;;;4931201;28;20357;-65
2024/01/24 02:43:20;;;;;;;;;;;;;;;;;;4931161;28;19931;-65
2024/01/24 02:45:47;;;;;;;;;;;;;;;;;;4930954;28;19927;-65
2024/01/24 02:48:15;;;;;;;;;;;;;;;;;;4931332;28;19989;-64
2024/01/24 02:50:42;;;;;;;;;;;;;;;;;;4944571;28;20017;-64
2024/01/24 02:53:09;;;;;;;;;;;;;;;;;;4933364;28;19935;-64
2024/01/24 02:55:36;;;;;;;;;;;;;;;;;;4932614;28;19926;-64
2024/01/24 02:58:03;;;;;;;;;;;;;;;;;;4934922;28;19935;-64
2024/01/24 03:00:30;;;;;;;;;;;;;;;;;;4934412;28;20283;-64
2024/01/24 03:02:57;;;;;;;;;;;;;;;;;;4934767;28;20448;-64
2024/01/24 03:05:24;;;;;;;;;;;;;;;;;;4935001;28;19992;-64
2024/01/24 03:07:51;;;;;;;;;;;;;;;;;;4948476;28;19927;-64
2024/01/24 03:10:20;;;;;;;;;;;;;;;;;;4947419;28;19926;-64
2024/01/24 03:12:47;;;;;;;;;;;;;;;;;;4934509;28;19926;-65
2024/01/24 03:15:15;;;;;;;;;;;;;;;;;;4934569;28;19927;-64
2024/01/24 03:17:43;;;;;;;;;;;;;;;;;;4934945;28;19927;-64
2024/01/24 03:20:10;;;;;;;;;;;;;;;;;;4934222;28;20341;-64
2024/01/24 03:22:37;;;;;;;;;;;;;;;;;;4933676;28;19933;-64
2024/01/24 03:25:04;;;;;;;;;;;;;;;;;;4934383;28;19966;-64
2024/01/24 03:27:32;;;;;;;;;;;;;;;;;;4934306;28;19958;-64
2024/01/24 03:29:59;;;;;;;;;;;;;;;;;;4933902;28;19930;-64
2024/01/24 03:32:26;;;;;;;;;;;;;;;;;;4934200;28;19927;-64
2024/01/24 03:34:53;;;;;;;;;;;;;;;;;;4933881;28;19930;-64
2024/01/24 03:37:20;;;;;;;;;;;;;;;;;;4934292;28;20345;-64
2024/01/24 03:39:47;;;;;;;;;;;;;;;;;;4934632;28;19931;-65
2024/01/24 03:42:14;;;;;;;;;;;;;;;;;;4934668;28;19931;-64
2024/01/24 03:44:41;;;;;;;;;;;;;;;;;;4934319;28;20609;-65
2024/01/24 03:47:08;;;;;;;;;;;;;;;;;;4934058;28;19969;-65
2024/01/24 03:49:35;;;;;;;;;;;;;;;;;;4934113;28;19927;-65
2024/01/24 03:52:02;;;;;;;;;;;;;;;;;;4934007;28;20422;-65
2024/01/24 03:54:29;;;;;;;;;;;;;;;;;;4933814;28;20379;-65
2024/01/24 03:56:57;;;;;;;;;;;;;;;;;;4933252;28;20377;-65
2024/01/24 03:59:24;;;;;;;;;;;;;;;;;;4952359;28;19926;-64
2024/01/24 04:01:51;;;;;;;;;;;;;;;;;;4952645;28;20432;-64
2024/01/24 04:04:18;;;;;;;;;;;;;;;;;;4936330;28;19931;-64
2024/01/24 04:06:45;;;;;;;;;;;;;;;;;;4932858;28;19931;-65
2024/01/24 04:09:12;;;;;;;;;;;;;;;;;;4933707;28;19927;-65
2024/01/24 04:11:39;;;;;;;;;;;;;;;;;;4933547;28;19933;-64
2024/01/24 04:14:07;;;;;;;;;;;;;;;;;;4933890;28;19989;-64
2024/01/24 04:16:35;;;;;;;;;;;;;;;;;;4933347;28;19984;-64
2024/01/24 04:19:02;;;;;;;;;;;;;;;;;;4933396;28;19927;-65
2024/01/24 04:21:29;;;;;;;;;;;;;;;;;;4933349;28;19927;-65
2024/01/24 04:23:56;;;;;;;;;;;;;;;;;;4933243;28;20302;-65
2024/01/24 04:26:25;;;;;;;;;;;;;;;;;;4932098;28;20139;-65
2024/01/24 04:28:52;;;;;;;;;;;;;;;;;;4939078;28;19927;-66
2024/01/24 04:31:19;;;;;;;;;;;;;;;;;;5021256;28;20410;-65
2024/01/24 04:33:46;;;;;;;;;;;;;;;;;;4952541;28;19984;-65
2024/01/24 04:36:13;;;;;;;;;;;;;;;;;;4936321;28;19992;-66
2024/01/24 04:38:40;;;;;;;;;;;;;;;;;;4932914;28;19927;-65
2024/01/24 04:41:07;;;;;;;;;;;;;;;;;;4931847;28;19927;-65
2024/01/24 04:43:34;;;;;;;;;;;;;;;;;;4933299;28;19927;-65
2024/01/24 04:46:02;;;;;;;;;;;;;;;;;;4933191;28;19966;-65
2024/01/24 04:48:29;;;;;;;;;;;;;;;;;;4933720;28;19933;-65
2024/01/24 04:50:56;;;;;;;;;;;;;;;;;;4932238;28;19927;-65
2024/01/24 04:53:24;;;;;;;;;;;;;;;;;;4932539;28;20378;-65
2024/01/24 04:55:51;;;;;;;;;;;;;;;;;;4932935;28;19931;-65
2024/01/24 04:58:18;;;;;;;;;;;;;;;;;;4933565;28;19926;-65
2024/01/24 05:00:46;;;;;;;;;;;;;;;;;;4933269;28;19977;-66
2024/01/24 05:03:14;;;;;;;;;;;;;;;;;;4932784;28;19927;-65
2024/01/24 05:05:41;;;;;;;;;;;;;;;;;;4937570;28;19927;-65
2024/01/24 05:08:08;;;;;;;;;;;;;;;;;;4951419;28;19998;-66
2024/01/24 05:10:35;;;;;;;;;;;;;;;;;;4937993;28;20024;-65
2024/01/24 05:13:02;;;;;;;;;;;;;;;;;;4932764;28;19973;-66
2024/01/24 05:15:29;;;;;;;;;;;;;;;;;;4932978;28;19927;-66
2024/01/24 05:17:56;;;;;;;;;;;;;;;;;;4932227;28;20341;-66
2024/01/24 05:20:23;;;;;;;;;;;;;;;;;;4932002;28;19934;-66
2024/01/24 05:22:50;;;;;;;;;;;;;;;;;;4932911;28;19930;-66
2024/01/24 05:25:17;;;;;;;;;;;;;;;;;;4932611;28;19930;-66
2024/01/24 05:27:44;;;;;;;;;;;;;;;;;;4932322;28;19985;-65
2024/01/24 05:30:11;;;;;;;;;;;;;;;;;;4932802;28;19927;-65
2024/01/24 05:32:38;;;;;;;;;;;;;;;;;;4970447;28;19956;-65
2024/01/24 05:35:05;;;;;;;;;;;;;;;;;;5031871;28;19979;-65
2024/01/24 05:37:32;;;;;;;;;;;;;;;;;;4975856;28;19973;-65
2024/01/24 05:39:59;;;;;;;;;;;;;;;;;;4932840;28;19931;-65
2024/01/24 05:42:26;;;;;;;;;;;;;;;;;;4932567;28;19943;-65
2024/01/24 05:44:53;;;;;;;;;;;;;;;;;;4932208;28;20344;-65
2024/01/24 05:47:20;;;;;;;;;;;;;;;;;;4931877;28;19950;-65
2024/01/24 05:49:47;;;;;;;;;;;;;;;;;;4931580;28;19931;-65
2024/01/24 05:52:14;;;;;;;;;;;;;;;;;;4930348;28;19931;-65
2024/01/24 05:54:41;;;;;;;;;;;;;;;;;;4931834;28;19990;-65
2024/01/24 05:57:08;;;;;;;;;;;;;;;;;;4940164;28;19926;-66
2024/01/24 05:59:35;;;;;;;;;;;;;;;;;;4951106;28;19927;-65
2024/01/24 06:02:02;;;;;;;;;;;;;;;;;;4950814;28;19934;-65
2024/01/24 06:04:29;;;;;;;;;;;;;;;;;;4951240;28;19930;-66
2024/01/24 06:07:00;;;;;;;;;;;;;;;;;;4933590;28;20310;-66
2024/01/24 06:09:27;;;;;;;;;;;;;;;;;;4931615;28;20377;-65
2024/01/24 06:11:54;;;;;;;;;;;;;;;;;;4932028;28;19927;-66
2024/01/24 06:14:21;;;;;;;;;;;;;;;;;;4941985;28;19927;-64
2024/01/24 06:16:48;;;;;;;;;;;;;;;;;;4934421;28;19926;-64
2024/01/24 06:19:15;;;;;;;;;;;;;;;;;;4931421;28;19927;-64
2024/01/24 06:21:42;;;;;;;;;;;;;;;;;;4931417;28;19980;-65
2024/01/24 06:24:09;;;;;;;;;;;;;;;;;;4967772;28;19929;-67
2024/01/24 06:26:37;;;;;;;;;;;;;;;;;;4961219;28;20422;-64
2024/01/24 06:29:04;;;;;;;;;;;;;;;;;;4931587;28;19974;-66
2024/01/24 06:31:32;;;;;;;;;;;;;;;;;;4945452;28;20239;-65
2024/01/24 06:34:00;;;;;;;;;;;;;;;;;;4952760;28;19972;-65
2024/01/24 06:36:28;;;;;;;;;;;;;;;;;;4934922;28;19970;-65
2024/01/24 06:38:55;;;;;;;;;;;;;;;;;;4935331;28;20363;-65
2024/01/24 06:41:22;;;;;;;;;;;;;;;;;;4934215;28;20360;-66
2024/01/24 06:43:49;;;;;;;;;;;;;;;;;;4934398;28;19927;-66
2024/01/24 06:46:17;;;;;;;;;;;;;;;;;;4934090;28;19927;-66
2024/01/24 06:48:45;;;;;;;;;;;;;;;;;;4934792;28;19974;-67
2024/01/24 06:51:13;;;;;;;;;;;;;;;;;;4934938;28;19931;-67
2024/01/24 06:53:40;;;;;;;;;;;;;;;;;;4935054;28;19927;-67
2024/01/24 06:56:08;;;;;;;;;;;;;;;;;;4934274;28;19938;-66
2024/01/24 06:58:37;;;;;;;;;;;;;;;;;;4934657;28;19931;-66
2024/01/24 07:01:05;;;;;;;;;;;;;;;;;;4935337;28;20070;-67
2024/01/24 07:03:32;;;;;;;;;;;;;;;;;;4934280;28;19957;-68
2024/01/24 07:05:59;;;;;;;;;;;;;;;;;;4934673;28;19927;-68
2024/01/24 07:08:27;;;;;;;;;;;;;;;;;;4933599;28;19981;-67
2024/01/24 07:10:54;;;;;;;;;;;;;;;;;;4935134;28;19969;-66
2024/01/24 07:13:21;;;;;;;;;;;;;;;;;;4934076;28;19933;-67
2024/01/24 07:15:48;;;;;;;;;;;;;;;;;;4953099;28;19927;-66
2024/01/24 07:18:16;;;;;;;;;;;;;;;;;;4940917;28;19934;-65
2024/01/24 07:20:43;;;;;;;;;;;;;;;;;;4953212;28;19980;-66
2024/01/24 07:23:10;;;;;;;;;;;;;;;;;;4932549;28;19946;-65
2024/01/24 07:25:37;;;;;;;;;;;;;;;;;;4935983;28;19926;-67
2024/01/24 07:28:06;;;;;;;;;;;;;;;;;;4936405;28;19934;-67
2024/01/24 07:30:33;;;;;;;;;;;;;;;;;;4932184;28;19931;-65
2024/01/24 07:33:03;;;;;;;;;;;;;;;;;;4939237;28;19962;-65
2024/01/24 07:35:30;;;;;;;;;;;;;;;;;;4936188;28;19926;-67
2024/01/24 07:37:58;;;;;;;;;;;;;;;;;;4942489;28;19927;-67
2024/01/24 07:40:26;;;;;;;;;;;;;;;;;;4923081;28;19942;-68
2024/01/24 07:42:53;;;;;;;;;;;;;;;;;;4938093;28;19934;-67
2024/01/24 07:45:20;;;;;;;;;;;;;;;;;;4942802;28;19931;-67
2024/01/24 07:50:24;;;;;;;;;;;;;;;;;;5013996;23;20016;-67
2024/01/24 07:52:51;;;;;;;;;;;;;;;;;;5000893;28;19933;-66
2024/01/24 07:55:18;;;;;;;;;;;;;;;;;;4982979;28;19937;-66
2024/01/24 07:57:45;;;;;;;;;;;;;;;;;;4964723;28;20397;-68
2024/01/24 08:00:16;;;;;;;;;;;;;;;;;;4970300;28;19959;-66
2024/01/24 08:02:43;;;;;;;;;;;;;;;;;;4970425;28;19988;-66
2024/01/24 08:05:12;;;;;;;;;;;;;;;;;;4973499;28;21073;-66
2024/01/24 08:07:40;;;;;;;;;;;;;;;;;;4975625;28;19933;-66
2024/01/24 08:10:10;;;;;;;;;;;;;;;;;;4993341;28;19930;-66
2024/01/24 08:12:37;;;;;;;;;;;;;;;;;;4969223;28;19926;-65
2024/01/24 08:15:05;;;;;;;;;;;;;;;;;;5044982;28;19926;-67
2024/01/24 08:17:32;;;;;;;;;;;;;;;;;;4966572;28;19938;-66
2024/01/24 08:19:59;;;;;;;;;;;;;;;;;;4969972;28;19926;-66
2024/01/24 08:22:26;;;;;;;;;;;;;;;;;;4999508;28;20285;-66
2024/01/24 08:24:53;;;;;;;;;;;;;;;;;;4998640;28;19980;-67
2024/01/24 08:27:20;;;;;;;;;;;;;;;;;;4971038;28;19926;-65
2024/01/24 08:29:47;;;;;;;;;;;;;;;;;;4970321;28;19957;-66
2024/01/24 08:32:14;;;;;;;;;;;;;;;;;;4970771;28;19926;-66
2024/01/24 08:34:41;;;;;;;;;;;;;;;;;;4971156;28;19926;-66
2024/01/24 08:37:09;;;;;;;;;;;;;;;;;;4968720;28;19988;-67
2024/01/24 08:39:36;;;;;;;;;;;;;;;;;;4972281;28;20025;-67
2024/01/24 08:42:03;;;;;;;;;;;;;;;;;;4970832;28;19980;-65
2024/01/24 08:44:30;;;;;;;;;;;;;;;;;;4958063;28;20474;-66
2024/01/24 08:46:57;;;;;;;;;;;;;;;;;;4969141;28;19947;-66
2024/01/24 08:49:24;;;;;;;;;;;;;;;;;;4977236;28;19956;-67
2024/01/24 08:51:52;;;;;;;;;;;;;;;;;;4971079;28;19976;-67
2024/01/24 08:54:19;;;;;;;;;;;;;;;;;;4976134;28;19933;-68
2024/01/24 08:56:47;;;;;;;;;;;;;;;;;;4968391;28;20392;-66
2024/01/24 08:59:14;;;;;;;;;;;;;;;;;;4990588;28;19926;-65
2024/01/24 09:01:42;;;;;;;;;;;;;;;;;;4969556;28;19979;-65
2024/01/24 09:04:09;;;;;;;;;;;;;;;;;;4967576;28;19933;-65
2024/01/24 09:06:36;;;;;;;;;;;;;;;;;;4983015;28;20381;-65
2024/01/24 09:09:04;;;;;;;;;;;;;;;;;;4999782;28;19926;-65
2024/01/24 09:11:31;;;;;;;;;;;;;;;;;;4972739;28;19941;-65
2024/01/24 09:13:58;;;;;;;;;;;;;;;;;;4970278;28;19934;-64
2024/01/24 09:16:25;;;;;;;;;;;;;;;;;;4962745;28;19933;-65
2024/01/24 09:18:52;;;;;;;;;;;;;;;;;;4954706;28;20391;-66
2024/01/24 09:21:19;;;;;;;;;;;;;;;;;;4957454;28;19926;-65
2024/01/24 09:23:49;;;;;;;;;;;;;;;;;;4976637;28;19968;-66
2024/01/24 09:26:16;;;;;;;;;;;;;;;;;;4978728;28;19934;-65
2024/01/24 09:28:43;;;;;;;;;;;;;;;;;;4971497;28;20017;-65
2024/01/24 09:31:10;;;;;;;;;;;;;;;;;;4968796;28;19934;-65
2024/01/24 09:33:37;;;;;;;;;;;;;;;;;;4970422;28;19940;-65
2024/01/24 09:36:04;;;;;;;;;;;;;;;;;;4966857;28;19965;-65
2024/01/24 09:38:32;;;;;;;;;;;;;;;;;;4971974;28;19934;-65
2024/01/24 09:41:00;;;;;;;;;;;;;;;;;;4975365;28;19973;-66
2024/01/24 09:43:27;;;;;;;;;;;;;;;;;;4970563;28;19926;-65
2024/01/24 09:45:54;;;;;;;;;;;;;;;;;;4969064;28;19926;-65
2024/01/24 09:48:21;;;;;;;;;;;;;;;;;;4967408;28;19934;-66
2024/01/24 09:50:48;;;;;;;;;;;;;;;;;;4969092;28;20015;-64
2024/01/24 09:53:17;;;;;;;;;;;;;;;;;;4968680;28;20400;-64
2024/01/24 09:55:44;;;;;;;;;;;;;;;;;;4966079;28;19926;-65
2024/01/24 09:58:11;;;;;;;;;;;;;;;;;;4968484;28;19931;-66
2024/01/24 10:00:38;;;;;;;;;;;;;;;;;;4967549;28;19930;-65
2024/01/24 10:03:05;;;;;;;;;;;;;;;;;;4968521;28;20002;-64
2024/01/24 10:05:32;;;;;;;;;;;;;;;;;;4968576;28;19926;-64
2024/01/24 10:07:59;;;;;;;;;;;;;;;;;;4967537;28;20302;-66
2024/01/24 10:10:26;;;;;;;;;;;;;;;;;;4969814;28;20333;-65
2024/01/24 10:12:53;;;;;;;;;;;;;;;;;;4984814;28;19926;-67
2024/01/24 10:15:21;;;;;;;;;;;;;;;;;;4977906;28;20036;-66
2024/01/24 10:17:48;;;;;;;;;;;;;;;;;;4971122;28;20431;-66
2024/01/24 10:20:16;;;;;;;;;;;;;;;;;;4972980;28;19926;-66
2024/01/24 10:22:44;;;;;;;;;;;;;;;;;;4970236;28;20289;-66
2024/01/24 10:25:11;;;;;;;;;;;;;;;;;;4961139;28;19965;-67
2024/01/24 10:27:38;;;;;;;;;;;;;;;;;;4971314;28;19926;-66
2024/01/24 10:30:05;;;;;;;;;;;;;;;;;;4974142;28;20438;-67
2024/01/24 10:32:32;;;;;;;;;;;;;;;;;;4972764;28;19926;-68
2024/01/24 10:34:59;;;;;;;;;;;;;;;;;;4972011;28;20038;-66
2024/01/24 10:37:26;;;;;;;;;;;;;;;;;;4967549;28;19934;-66
2024/01/24 10:39:55;;;;;;;;;;;;;;;;;;4968659;28;19926;-63
2024/01/24 10:42:22;;;;;;;;;;;;;;;;;;4975439;28;19981;-64
2024/01/24 10:44:50;;;;;;;;;;;;;;;;;;4971821;28;19926;-65
2024/01/24 10:47:17;;;;;;;;;;;;;;;;;;4973806;28;20009;-64
2024/01/24 10:49:44;;;;;;;;;;;;;;;;;;4989904;28;19924;-65
2024/01/24 10:52:11;;;;;;;;;;;;;;;;;;4993277;28;20476;-64
2024/01/24 10:54:40;;;;;;;;;;;;;;;;;;4968121;28;19932;-65
2024/01/24 10:57:07;;;;;;;;;;;;;;;;;;4976225;28;19966;-65
2024/01/24 10:59:34;;;;;;;;;;;;;;;;;;4974352;28;19926;-67
2024/01/24 11:02:01;;;;;;;;;;;;;;;;;;4971717;28;20292;-65
2024/01/24 11:04:28;;;;;;;;;;;;;;;;;;4978874;28;20392;-65
2024/01/24 11:06:55;;;;;;;;;;;;;;;;;;4980028;28;20028;-65
2024/01/24 11:09:23;;;;;;;;;;;;;;;;;;4978209;28;19930;-64
2024/01/24 11:11:50;;;;;;;;;;;;;;;;;;4958193;28;19926;-64
2024/01/24 11:14:18;;;;;;;;;;;;;;;;;;4967622;28;20273;-66
2024/01/24 11:16:45;;;;;;;;;;;;;;;;;;4958695;28;19942;-65
2024/01/24 11:19:12;;;;;;;;;;;;;;;;;;4965655;28;19961;-65
2024/01/24 11:21:39;;;;;;;;;;;;;;;;;;4977482;28;20305;-65
2024/01/24 11:24:07;;;;;;;;;;;;;;;;;;5003877;28;19930;-64
2024/01/24 11:26:34;;;;;;;;;;;;;;;;;;4970444;28;20040;-64
2024/01/24 11:29:02;;;;;;;;;;;;;;;;;;4966708;28;20092;-65
2024/01/24 11:31:30;;;;;;;;;;;;;;;;;;4970777;28;19938;-65
2024/01/24 11:33:57;;;;;;;;;;;;;;;;;;4969948;23;19937;-66
2024/01/24 11:36:24;;;;;;;;;;;;;;;;;;4952505;28;20275;-66
2024/01/24 11:38:51;;;;;;;;;;;;;;;;;;4953357;28;20058;-65
2024/01/24 11:41:18;;;;;;;;;;;;;;;;;;4959382;28;20409;-65
2024/01/24 11:43:45;;;;;;;;;;;;;;;;;;4940957;28;20393;-66
2024/01/24 11:46:12;;;;;;;;;;;;;;;;;;4957241;28;19970;-67
2024/01/24 11:48:40;;;;;;;;;;;;;;;;;;4953028;28;19938;-66
2024/01/24 11:51:09;;;;;;;;;;;;;;;;;;4947377;28;19930;-67
2024/01/24 11:53:36;;;;;;;;;;;;;;;;;;4953906;28;19933;-66
2024/01/24 11:56:03;;;;;;;;;;;;;;;;;;4955629;28;19927;-67
2024/01/24 11:58:30;;;;;;;;;;;;;;;;;;4960905;28;19930;-66
2024/01/24 12:00:57;;;;;;;;;;;;;;;;;;4951273;28;20495;-66
2024/01/24 12:03:24;;;;;;;;;;;;;;;;;;4952361;28;20007;-66
2024/01/24 12:05:51;;;;;;;;;;;;;;;;;;4944742;28;19984;-66
2024/01/24 12:08:18;;;;;;;;;;;;;;;;;;4951548;28;20444;-66
2024/01/24 12:10:45;;;;;;;;;;;;;;;;;;4923881;28;19931;-66
2024/01/24 12:13:12;;;;;;;;;;;;;;;;;;4917709;28;19935;-66
2024/01/24 12:15:39;;;;;;;;;;;;;;;;;;4923264;28;19934;-66
2024/01/24 12:18:06;;;;;;;;;;;;;;;;;;4931915;28;19932;-66
2024/01/24 12:20:33;;;;;;;;;;;;;;;;;;4921688;28;19927;-66
2024/01/24 12:23:01;;;;;;;;;;;;;;;;;;4933577;28;19935;-66
2024/01/24 12:25:28;;;;;;;;;;;;;;;;;;4940978;28;19928;-67
2024/01/24 12:27:56;;;;;;;;;;;;;;;;;;4933497;22;19997;-67
2024/01/24 12:30:23;;;;;;;;;;;;;;;;;;4938295;28;20397;-67
2024/01/24 12:32:52;;;;;;;;;;;;;;;;;;4935425;28;19985;-67
2024/01/24 12:35:20;;;;;;;;;;;;;;;;;;4928365;28;19957;-68
2024/01/24 12:37:47;;;;;;;;;;;;;;;;;;4931025;28;20032;-67
2024/01/24 12:40:15;;;;;;;;;;;;;;;;;;4939469;28;20004;-67
2024/01/24 12:42:42;;;;;;;;;;;;;;;;;;4927894;28;20398;-67
2024/01/24 12:45:09;;;;;;;;;;;;;;;;;;4947715;28;20002;-65
2024/01/24 12:47:37;;;;;;;;;;;;;;;;;;4940027;28;20012;-67
2024/01/24 12:50:04;;;;;;;;;;;;;;;;;;4926482;28;19938;-66
2024/01/24 12:52:31;;;;;;;;;;;;;;;;;;4936076;28;20005;-65
2024/01/24 12:54:59;;;;;;;;;;;;;;;;;;4974105;23;19928;-67
2024/01/24 12:57:27;;;;;;;;;;;;;;;;;;4969349;28;19956;-67
2024/01/24 12:59:56;;;;;;;;;;;;;;;;;;5022110;28;20298;-67
2024/01/24 13:02:31;;;;;;;;;;;;;;;;;;4965295;28;19977;-66
2024/01/24 13:05:01;;;;;;;;;;;;;;;;;;4961133;28;19973;-67
2024/01/24 13:07:30;;;;;;;;;;;;;;;;;;4954085;28;19973;-68
2024/01/24 13:09:58;;;;;;;;;;;;;;;;;;4976006;28;20401;-69
2024/01/24 13:12:26;;;;;;;;;;;;;;;;;;4974406;28;19934;-68
2024/01/24 13:14:56;;;;;;;;;;;;;;;;;;4968692;28;19945;-69
2024/01/24 13:17:24;;;;;;;;;;;;;;;;;;4960544;28;20181;-68
2024/01/24 13:19:53;;;;;;;;;;;;;;;;;;4962003;28;20343;-69
2024/01/24 13:22:21;;;;;;;;;;;;;;;;;;4962542;28;19934;-70
2024/01/24 13:24:48;;;;;;;;;;;;;;;;;;4967746;28;20373;-68
2024/01/24 13:27:15;;;;;;;;;;;;;;;;;;4966277;28;19956;-69
2024/01/24 13:29:43;;;;;;;;;;;;;;;;;;4966636;28;19927;-68
2024/01/24 13:34:51;;;;;;;;;;;;;;;;;;4953175;28;19945;-69
2024/01/24 13:37:22;;;;;;;;;;;;;;;;;;4963803;28;19930;-68
2024/01/24 13:39:49;;;;;;;;;;;;;;;;;;4985721;23;20255;-69
2024/01/24 13:42:17;;;;;;;;;;;;;;;;;;4958399;28;20297;-68
2024/01/24 13:44:44;;;;;;;;;;;;;;;;;;4967571;28;19933;-67
2024/01/24 13:47:14;;;;;;;;;;;;;;;;;;5003613;28;20393;-68
2024/01/24 13:49:43;;;;;;;;;;;;;;;;;;4979394;28;20009;-68
2024/01/24 13:52:10;;;;;;;;;;;;;;;;;;4974972;23;19930;-68
2024/01/24 13:54:37;;;;;;;;;;;;;;;;;;5021794;28;19929;-67
2024/01/24 13:57:08;;;;;;;;;;;;;;;;;;5044373;28;19930;-68
2024/01/24 13:59:35;;;;;;;;;;;;;;;;;;4968418;28;19969;-67
2024/01/24 14:02:02;;;;;;;;;;;;;;;;;;5168492;23;19930;-68
2024/01/24 14:04:29;;;;;;;;;;;;;;;;;;5012045;23;19944;-68
2024/01/24 14:06:56;;;;;;;;;;;;;;;;;;4968709;28;19938;-68
2024/01/24 14:09:25;;;;;;;;;;;;;;;;;;4969024;28;19926;-68
2024/01/24 14:11:54;;;;;;;;;;;;;;;;;;4973986;28;19927;-68
2024/01/24 14:14:21;;;;;;;;;;;;;;;;;;4968303;28;19926;-70
2024/01/24 14:16:48;;;;;;;;;;;;;;;;;;4967337;28;19926;-68
2024/01/24 14:19:15;;;;;;;;;;;;;;;;;;4967025;28;20062;-68
2024/01/24 14:21:43;;;;;;;;;;;;;;;;;;4969589;28;19926;-68
2024/01/24 14:24:10;;;;;;;;;;;;;;;;;;4962834;28;19988;-68
2024/01/24 14:26:41;;;;;;;;;;;;;;;;;;4976612;28;19933;-68
2024/01/24 14:29:08;;;;;;;;;;;;;;;;;;5033683;28;19924;-68
2024/01/24 14:31:35;;;;;;;;;;;;;;;;;;4968813;28;19926;-67
2024/01/24 14:34:02;;;;;;;;;;;;;;;;;;4964863;28;19927;-67
2024/01/24 14:36:30;;;;;;;;;;;;;;;;;;4966770;28;19930;-67
2024/01/24 14:38:58;;;;;;;;;;;;;;;;;;4991266;28;19936;-68
2024/01/24 14:41:26;;;;;;;;;;;;;;;;;;4971643;28;19965;-68
2024/01/24 14:43:53;;;;;;;;;;;;;;;;;;4976588;28;20005;-68
2024/01/24 14:46:21;;;;;;;;;;;;;;;;;;4959979;28;19934;-69
2024/01/24 14:48:49;;;;;;;;;;;;;;;;;;4976880;28;19949;-67
2024/01/24 14:51:16;;;;;;;;;;;;;;;;;;4961263;28;19934;-68
2024/01/24 14:53:43;;;;;;;;;;;;;;;;;;4966062;28;19999;-68
2024/01/24 14:56:11;;;;;;;;;;;;;;;;;;4976865;28;19926;-67
2024/01/24 14:58:38;;;;;;;;;;;;;;;;;;4965140;28;20179;-68
2024/01/24 15:01:06;;;;;;;;;;;;;;;;;;4963402;28;20336;-68
2024/01/24 15:03:34;;;;;;;;;;;;;;;;;;4975496;28;19991;-67
2024/01/24 15:06:01;;;;;;;;;;;;;;;;;;4986611;28;19926;-68
2024/01/24 15:08:28;;;;;;;;;;;;;;;;;;5025269;28;19930;-69
2024/01/24 15:10:56;;;;;;;;;;;;;;;;;;4985134;28;19961;-68
2024/01/24 15:13:23;;;;;;;;;;;;;;;;;;4983334;28;20005;-68
2024/01/24 15:15:51;;;;;;;;;;;;;;;;;;4975344;28;19938;-68
2024/01/24 15:18:19;;;;;;;;;;;;;;;;;;4984256;28;19930;-68
2024/01/24 15:20:50;;;;;;;;;;;;;;;;;;5016272;28;20009;-68
2024/01/24 15:23:17;;;;;;;;;;;;;;;;;;4981579;28;20346;-68
2024/01/24 15:25:44;;;;;;;;;;;;;;;;;;5023770;28;19925;-68
2024/01/24 15:28:11;;;;;;;;;;;;;;;;;;4979248;28;20467;-69
2024/01/24 15:30:39;;;;;;;;;;;;;;;;;;4995373;28;20415;-67
2024/01/24 15:33:07;;;;;;;;;;;;;;;;;;5006669;28;19928;-67
2024/01/24 15:35:34;;;;;;;;;;;;;;;;;;4968179;28;19927;-67
2024/01/24 15:38:01;;;;;;;;;;;;;;;;;;4979435;28;20023;-68
2024/01/24 15:40:28;;;;;;;;;;;;;;;;;;4960629;28;20347;-67
2024/01/24 15:42:59;;;;;;;;;;;;;;;;;;4970364;28;19927;-68
2024/01/24 15:45:27;;;;;;;;;;;;;;;;;;4969900;28;19938;-68
2024/01/24 15:47:54;;;;;;;;;;;;;;;;;;4973819;28;19980;-67
2024/01/24 15:50:21;;;;;;;;;;;;;;;;;;4975632;28;20389;-68
2024/01/24 15:52:48;;;;;;;;;;;;;;;;;;4969206;28;19979;-68
2024/01/24 15:55:15;;;;;;;;;;;;;;;;;;5015675;28;19924;-67
2024/01/24 15:57:42;;;;;;;;;;;;;;;;;;4969556;28;19926;-67
2024/01/24 16:00:10;;;;;;;;;;;;;;;;;;4994454;28;19930;-67
2024/01/24 16:02:37;;;;;;;;;;;;;;;;;;4964550;28;20389;-66
2024/01/24 16:05:04;;;;;;;;;;;;;;;;;;4966584;28;19926;-67
2024/01/24 16:07:31;;;;;;;;;;;;;;;;;;4969482;28;19985;-67
2024/01/24 16:09:59;;;;;;;;;;;;;;;;;;4982215;28;19933;-67
2024/01/24 16:12:26;;;;;;;;;;;;;;;;;;4962110;28;19930;-68
2024/01/24 16:14:53;;;;;;;;;;;;;;;;;;5004164;28;20343;-65
2024/01/24 16:17:20;;;;;;;;;;;;;;;;;;4982660;28;19930;-65
2024/01/24 16:19:50;;;;;;;;;;;;;;;;;;4987441;28;19928;-67
2024/01/24 16:22:17;;;;;;;;;;;;;;;;;;4976081;28;20021;-67
2024/01/24 16:24:45;;;;;;;;;;;;;;;;;;4971425;28;19957;-67
2024/01/24 16:27:13;;;;;;;;;;;;;;;;;;4967349;28;19926;-67
2024/01/24 16:29:41;;;;;;;;;;;;;;;;;;4991905;28;19926;-68
2024/01/24 16:32:08;;;;;;;;;;;;;;;;;;4998697;28;20021;-69
2024/01/24 16:34:35;;;;;;;;;;;;;;;;;;5000871;28;20401;-66
2024/01/24 16:37:02;;;;;;;;;;;;;;;;;;5015342;28;19970;-66
2024/01/24 16:39:29;;;;;;;;;;;;;;;;;;4972520;28;19972;-67
2024/01/24 16:41:56;;;;;;;;;;;;;;;;;;4970466;28;20381;-67
2024/01/24 16:44:23;;;;;;;;;;;;;;;;;;4979980;28;20357;-68
2024/01/24 16:46:50;;;;;;;;;;;;;;;;;;4978338;28;19977;-67
2024/01/24 16:49:17;;;;;;;;;;;;;;;;;;4988608;28;19925;-67
2024/01/24 16:51:44;;;;;;;;;;;;;;;;;;4993626;28;19986;-67